sensor_id;sensor_type;location;lat;lon;timestamp;P1;durP1;ratioP1;P2;durP2;ratioP2
75760;SDS011;64373;46.136;8.830;2023-03-02T00:01:25;19.73;;;9.98;;
75760;SDS011;64373;46.136;8.830;2023-03-02T00:03:53;25.30;;;12.25;;
75760;SDS011;64373;46.136;8.830;2023-03-02T00:06:23;23.38;;;11.82;;
75760;SDS011;64373;46.136;8.830;2023-03-02T00:08:49;16.75;;;8.40;;
75760;SDS011;64373;46.136;8.830;2023-03-02T00:11:15;13.90;;;6.82;;
75760;SDS011;64373;46.136;8.830;2023-03-02T00:13:44;13.55;;;7.13;;
75760;SDS011;64373;46.136;8.830;2023-03-02T00:16:09;26.58;;;13.35;;
75760;SDS011;64373;46.136;8.830;2023-03-02T00:18:35;20.75;;;10.35;;
75760;SDS011;64373;46.136;8.830;2023-03-02T00:21:00;19.92;;;10.07;;
75760;SDS011;64373;46.136;8.830;2023-03-02T00:23:26;16.38;;;7.40;;
75760;SDS011;64373;46.136;8.830;2023-03-02T00:25:51;10.85;;;5.55;;
75760;SDS011;64373;46.136;8.830;2023-03-02T00:28:17;14.50;;;7.55;;
75760;SDS011;64373;46.136;8.830;2023-03-02T00:30:43;13.25;;;6.72;;
75760;SDS011;64373;46.136;8.830;2023-03-02T00:33:08;11.25;;;6.07;;
75760;SDS011;64373;46.136;8.830;2023-03-02T00:35:37;15.80;;;7.30;;
75760;SDS011;64373;46.136;8.830;2023-03-02T00:38:04;16.30;;;7.72;;
75760;SDS011;64373;46.136;8.830;2023-03-02T00:40:31;13.50;;;6.35;;
75760;SDS011;64373;46.136;8.830;2023-03-02T00:42:57;13.30;;;6.28;;
75760;SDS011;64373;46.136;8.830;2023-03-02T00:45:23;12.95;;;6.43;;
75760;SDS011;64373;46.136;8.830;2023-03-02T00:47:48;11.35;;;5.70;;
75760;SDS011;64373;46.136;8.830;2023-03-02T00:50:14;9.88;;;5.03;;
75760;SDS011;64373;46.136;8.830;2023-03-02T00:52:39;11.43;;;6.00;;
75760;SDS011;64373;46.136;8.830;2023-03-02T00:55:05;9.15;;;5.10;;
75760;SDS011;64373;46.136;8.830;2023-03-02T00:57:31;10.02;;;4.97;;
75760;SDS011;64373;46.136;8.830;2023-03-02T00:59:57;8.88;;;4.72;;
75760;SDS011;64373;46.136;8.830;2023-03-02T01:02:23;7.95;;;4.13;;
75760;SDS011;64373;46.136;8.830;2023-03-02T01:04:49;10.25;;;4.57;;
75760;SDS011;64373;46.136;8.830;2023-03-02T01:07:17;9.95;;;5.22;;
75760;SDS011;64373;46.136;8.830;2023-03-02T01:09:44;8.52;;;4.50;;
75760;SDS011;64373;46.136;8.830;2023-03-02T01:12:12;8.18;;;4.57;;
75760;SDS011;64373;46.136;8.830;2023-03-02T01:14:39;7.57;;;4.13;;
75760;SDS011;64373;46.136;8.830;2023-03-02T01:17:06;13.30;;;6.90;;
75760;SDS011;64373;46.136;8.830;2023-03-02T01:19:34;11.60;;;5.88;;
75760;SDS011;64373;46.136;8.830;2023-03-02T01:21:59;10.95;;;5.47;;
75760;SDS011;64373;46.136;8.830;2023-03-02T01:24:25;11.75;;;5.00;;
75760;SDS011;64373;46.136;8.830;2023-03-02T01:26:51;14.30;;;6.57;;
75760;SDS011;64373;46.136;8.830;2023-03-02T01:29:17;24.38;;;11.65;;
75760;SDS011;64373;46.136;8.830;2023-03-02T01:31:42;15.60;;;7.80;;
75760;SDS011;64373;46.136;8.830;2023-03-02T01:34:08;10.85;;;5.82;;
75760;SDS011;64373;46.136;8.830;2023-03-02T01:36:33;9.90;;;5.00;;
75760;SDS011;64373;46.136;8.830;2023-03-02T01:38:59;9.60;;;4.78;;
75760;SDS011;64373;46.136;8.830;2023-03-02T01:41:25;16.63;;;8.60;;
75760;SDS011;64373;46.136;8.830;2023-03-02T01:43:51;13.07;;;6.82;;
75760;SDS011;64373;46.136;8.830;2023-03-02T01:51:15;8.68;;;4.47;;
75760;SDS011;64373;46.136;8.830;2023-03-02T01:53:43;8.27;;;3.80;;
75760;SDS011;64373;46.136;8.830;2023-03-02T01:56:14;7.22;;;3.42;;
75760;SDS011;64373;46.136;8.830;2023-03-02T01:58:45;8.02;;;3.70;;
75760;SDS011;64373;46.136;8.830;2023-03-02T02:01:13;7.18;;;3.70;;
75760;SDS011;64373;46.136;8.830;2023-03-02T02:03:42;6.82;;;3.88;;
75760;SDS011;64373;46.136;8.830;2023-03-02T02:07:10;6.38;;;3.55;;
75760;SDS011;64373;46.136;8.830;2023-03-02T02:09:24;7.03;;;4.35;;
75760;SDS011;64373;46.136;8.830;2023-03-02T02:11:51;9.57;;;4.55;;
75760;SDS011;64373;46.136;8.830;2023-03-02T02:14:16;9.63;;;4.65;;
75760;SDS011;64373;46.136;8.830;2023-03-02T02:16:42;9.75;;;5.57;;
75760;SDS011;64373;46.136;8.830;2023-03-02T02:19:17;11.65;;;5.88;;
75760;SDS011;64373;46.136;8.830;2023-03-02T02:22:07;11.63;;;6.38;;
75760;SDS011;64373;46.136;8.830;2023-03-02T02:24:45;12.25;;;5.90;;
75760;SDS011;64373;46.136;8.830;2023-03-02T02:27:17;18.50;;;8.82;;
75760;SDS011;64373;46.136;8.830;2023-03-02T02:29:44;10.68;;;5.65;;
75760;SDS011;64373;46.136;8.830;2023-03-02T02:32:17;11.73;;;5.90;;
75760;SDS011;64373;46.136;8.830;2023-03-02T02:37:30;9.70;;;5.38;;
75760;SDS011;64373;46.136;8.830;2023-03-02T02:39:58;9.98;;;5.13;;
75760;SDS011;64373;46.136;8.830;2023-03-02T02:42:31;11.02;;;5.30;;
75760;SDS011;64373;46.136;8.830;2023-03-02T02:45:04;13.93;;;6.47;;
75760;SDS011;64373;46.136;8.830;2023-03-02T02:47:31;10.63;;;4.82;;
75760;SDS011;64373;46.136;8.830;2023-03-02T02:49:57;16.95;;;8.93;;
75760;SDS011;64373;46.136;8.830;2023-03-02T02:52:24;11.43;;;5.93;;
75760;SDS011;64373;46.136;8.830;2023-03-02T02:54:52;15.00;;;6.70;;
75760;SDS011;64373;46.136;8.830;2023-03-02T02:57:19;23.73;;;11.93;;
75760;SDS011;64373;46.136;8.830;2023-03-02T02:59:50;24.63;;;12.55;;
75760;SDS011;64373;46.136;8.830;2023-03-02T03:02:22;16.65;;;7.82;;
75760;SDS011;64373;46.136;8.830;2023-03-02T03:04:49;19.50;;;10.52;;
75760;SDS011;64373;46.136;8.830;2023-03-02T03:07:20;22.30;;;9.82;;
75760;SDS011;64373;46.136;8.830;2023-03-02T03:09:58;15.32;;;7.25;;
75760;SDS011;64373;46.136;8.830;2023-03-02T03:12:28;11.30;;;6.22;;
75760;SDS011;64373;46.136;8.830;2023-03-02T03:14:56;18.15;;;8.55;;
75760;SDS011;64373;46.136;8.830;2023-03-02T03:17:22;8.70;;;5.10;;
75760;SDS011;64373;46.136;8.830;2023-03-02T03:19:48;9.40;;;4.82;;
75760;SDS011;64373;46.136;8.830;2023-03-02T03:22:14;21.48;;;11.05;;
75760;SDS011;64373;46.136;8.830;2023-03-02T03:24:41;14.02;;;7.43;;
75760;SDS011;64373;46.136;8.830;2023-03-02T03:27:08;19.35;;;9.60;;
75760;SDS011;64373;46.136;8.830;2023-03-02T03:29:36;20.95;;;9.20;;
75760;SDS011;64373;46.136;8.830;2023-03-02T03:32:03;22.67;;;11.82;;
75760;SDS011;64373;46.136;8.830;2023-03-02T03:34:31;14.07;;;6.93;;
75760;SDS011;64373;46.136;8.830;2023-03-02T03:36:57;12.02;;;5.68;;
75760;SDS011;64373;46.136;8.830;2023-03-02T03:39:27;10.15;;;5.45;;
75760;SDS011;64373;46.136;8.830;2023-03-02T03:41:54;9.73;;;4.97;;
75760;SDS011;64373;46.136;8.830;2023-03-02T03:44:19;9.65;;;5.32;;
75760;SDS011;64373;46.136;8.830;2023-03-02T03:46:45;12.23;;;6.65;;
75760;SDS011;64373;46.136;8.830;2023-03-02T03:49:10;13.35;;;6.72;;
75760;SDS011;64373;46.136;8.830;2023-03-02T03:51:36;17.00;;;8.68;;
75760;SDS011;64373;46.136;8.830;2023-03-02T03:54:02;26.65;;;11.80;;
75760;SDS011;64373;46.136;8.830;2023-03-02T03:56:30;27.27;;;12.90;;
75760;SDS011;64373;46.136;8.830;2023-03-02T03:58:57;17.45;;;9.13;;
75760;SDS011;64373;46.136;8.830;2023-03-02T04:01:35;26.15;;;13.38;;
75760;SDS011;64373;46.136;8.830;2023-03-02T04:04:03;20.50;;;10.07;;
75760;SDS011;64373;46.136;8.830;2023-03-02T04:06:29;15.55;;;7.97;;
75760;SDS011;64373;46.136;8.830;2023-03-02T04:08:55;23.15;;;10.85;;
75760;SDS011;64373;46.136;8.830;2023-03-02T04:11:20;26.08;;;12.48;;
75760;SDS011;64373;46.136;8.830;2023-03-02T04:13:46;21.77;;;11.25;;
75760;SDS011;64373;46.136;8.830;2023-03-02T04:16:13;25.63;;;12.10;;
75760;SDS011;64373;46.136;8.830;2023-03-02T04:18:39;22.52;;;10.70;;
75760;SDS011;64373;46.136;8.830;2023-03-02T04:21:04;15.75;;;7.30;;
75760;SDS011;64373;46.136;8.830;2023-03-02T04:23:30;14.35;;;6.90;;
75760;SDS011;64373;46.136;8.830;2023-03-02T04:25:55;12.07;;;6.78;;
75760;SDS011;64373;46.136;8.830;2023-03-02T04:28:21;12.98;;;6.05;;
75760;SDS011;64373;46.136;8.830;2023-03-02T04:30:46;11.88;;;6.13;;
75760;SDS011;64373;46.136;8.830;2023-03-02T04:33:12;11.40;;;5.28;;
75760;SDS011;64373;46.136;8.830;2023-03-02T04:35:37;11.07;;;5.40;;
75760;SDS011;64373;46.136;8.830;2023-03-02T04:38:03;9.65;;;4.95;;
75760;SDS011;64373;46.136;8.830;2023-03-02T04:40:28;11.65;;;5.20;;
75760;SDS011;64373;46.136;8.830;2023-03-02T04:42:54;21.90;;;11.13;;
75760;SDS011;64373;46.136;8.830;2023-03-02T04:45:20;21.42;;;10.35;;
75760;SDS011;64373;46.136;8.830;2023-03-02T04:47:45;19.17;;;8.77;;
75760;SDS011;64373;46.136;8.830;2023-03-02T04:50:12;14.10;;;6.63;;
75760;SDS011;64373;46.136;8.830;2023-03-02T04:52:38;12.32;;;6.20;;
75760;SDS011;64373;46.136;8.830;2023-03-02T04:55:04;24.85;;;12.07;;
75760;SDS011;64373;46.136;8.830;2023-03-02T04:57:32;19.75;;;10.02;;
75760;SDS011;64373;46.136;8.830;2023-03-02T04:59:57;16.08;;;7.70;;
75760;SDS011;64373;46.136;8.830;2023-03-02T05:02:23;17.67;;;9.30;;
75760;SDS011;64373;46.136;8.830;2023-03-02T05:04:49;15.43;;;7.47;;
75760;SDS011;64373;46.136;8.830;2023-03-02T05:07:14;11.93;;;5.78;;
75760;SDS011;64373;46.136;8.830;2023-03-02T05:09:40;9.98;;;5.10;;
75760;SDS011;64373;46.136;8.830;2023-03-02T05:12:06;11.73;;;6.47;;
75760;SDS011;64373;46.136;8.830;2023-03-02T05:14:31;18.85;;;10.15;;
75760;SDS011;64373;46.136;8.830;2023-03-02T05:16:57;24.17;;;11.77;;
75760;SDS011;64373;46.136;8.830;2023-03-02T05:19:23;19.70;;;9.20;;
75760;SDS011;64373;46.136;8.830;2023-03-02T05:21:48;14.45;;;6.93;;
75760;SDS011;64373;46.136;8.830;2023-03-02T05:24:14;12.75;;;6.07;;
75760;SDS011;64373;46.136;8.830;2023-03-02T05:26:40;17.88;;;7.80;;
75760;SDS011;64373;46.136;8.830;2023-03-02T05:29:05;13.77;;;6.40;;
75760;SDS011;64373;46.136;8.830;2023-03-02T05:31:33;12.77;;;6.00;;
75760;SDS011;64373;46.136;8.830;2023-03-02T05:34:00;9.40;;;4.60;;
75760;SDS011;64373;46.136;8.830;2023-03-02T05:36:27;9.50;;;4.57;;
75760;SDS011;64373;46.136;8.830;2023-03-02T05:38:53;12.02;;;5.70;;
75760;SDS011;64373;46.136;8.830;2023-03-02T05:41:18;10.43;;;5.50;;
75760;SDS011;64373;46.136;8.830;2023-03-02T05:43:44;9.50;;;5.28;;
75760;SDS011;64373;46.136;8.830;2023-03-02T05:46:09;12.55;;;5.38;;
75760;SDS011;64373;46.136;8.830;2023-03-02T05:48:35;14.02;;;6.53;;
75760;SDS011;64373;46.136;8.830;2023-03-02T05:51:01;11.32;;;5.38;;
75760;SDS011;64373;46.136;8.830;2023-03-02T05:53:26;10.68;;;5.55;;
75760;SDS011;64373;46.136;8.830;2023-03-02T05:55:52;10.25;;;4.80;;
75760;SDS011;64373;46.136;8.830;2023-03-02T05:58:18;9.90;;;4.55;;
75760;SDS011;64373;46.136;8.830;2023-03-02T06:00:44;9.05;;;4.90;;
75760;SDS011;64373;46.136;8.830;2023-03-02T06:03:11;9.65;;;4.78;;
75760;SDS011;64373;46.136;8.830;2023-03-02T06:05:36;10.10;;;4.68;;
75760;SDS011;64373;46.136;8.830;2023-03-02T06:08:02;9.82;;;4.93;;
75760;SDS011;64373;46.136;8.830;2023-03-02T06:10:28;8.63;;;4.55;;
75760;SDS011;64373;46.136;8.830;2023-03-02T06:12:54;12.25;;;6.13;;
75760;SDS011;64373;46.136;8.830;2023-03-02T06:15:20;14.63;;;7.38;;
75760;SDS011;64373;46.136;8.830;2023-03-02T06:17:45;10.00;;;4.55;;
75760;SDS011;64373;46.136;8.830;2023-03-02T06:20:11;10.85;;;6.50;;
75760;SDS011;64373;46.136;8.830;2023-03-02T06:22:39;7.85;;;4.53;;
75760;SDS011;64373;46.136;8.830;2023-03-02T06:25:10;14.63;;;6.53;;
75760;SDS011;64373;46.136;8.830;2023-03-02T06:27:41;10.00;;;4.68;;
75760;SDS011;64373;46.136;8.830;2023-03-02T06:30:08;10.48;;;5.13;;
75760;SDS011;64373;46.136;8.830;2023-03-02T06:32:36;9.40;;;4.20;;
75760;SDS011;64373;46.136;8.830;2023-03-02T06:35:02;17.60;;;9.43;;
75760;SDS011;64373;46.136;8.830;2023-03-02T06:37:29;20.60;;;10.35;;
75760;SDS011;64373;46.136;8.830;2023-03-02T06:39:56;13.25;;;7.43;;
75760;SDS011;64373;46.136;8.830;2023-03-02T06:42:22;18.75;;;8.80;;
75760;SDS011;64373;46.136;8.830;2023-03-02T06:44:49;19.17;;;9.88;;
75760;SDS011;64373;46.136;8.830;2023-03-02T06:47:16;26.27;;;12.60;;
75760;SDS011;64373;46.136;8.830;2023-03-02T06:49:42;12.32;;;7.38;;
75760;SDS011;64373;46.136;8.830;2023-03-02T06:52:08;14.50;;;6.78;;
75760;SDS011;64373;46.136;8.830;2023-03-02T06:54:35;12.48;;;6.45;;
75760;SDS011;64373;46.136;8.830;2023-03-02T06:57:01;18.70;;;9.02;;
75760;SDS011;64373;46.136;8.830;2023-03-02T06:59:27;16.95;;;8.02;;
75760;SDS011;64373;46.136;8.830;2023-03-02T07:01:52;19.35;;;9.10;;
75760;SDS011;64373;46.136;8.830;2023-03-02T07:04:18;16.73;;;8.35;;
75760;SDS011;64373;46.136;8.830;2023-03-02T07:06:44;14.10;;;6.95;;
75760;SDS011;64373;46.136;8.830;2023-03-02T07:09:09;36.00;;;16.35;;
75760;SDS011;64373;46.136;8.830;2023-03-02T07:11:35;28.42;;;13.50;;
75760;SDS011;64373;46.136;8.830;2023-03-02T07:14:00;22.45;;;10.70;;
75760;SDS011;64373;46.136;8.830;2023-03-02T07:16:26;22.08;;;10.00;;
75760;SDS011;64373;46.136;8.830;2023-03-02T07:18:52;15.88;;;8.50;;
75760;SDS011;64373;46.136;8.830;2023-03-02T07:21:18;15.95;;;7.68;;
75760;SDS011;64373;46.136;8.830;2023-03-02T07:23:44;18.77;;;8.25;;
75760;SDS011;64373;46.136;8.830;2023-03-02T07:26:09;14.77;;;7.80;;
75760;SDS011;64373;46.136;8.830;2023-03-02T07:28:36;19.50;;;10.02;;
75760;SDS011;64373;46.136;8.830;2023-03-02T07:31:03;12.07;;;6.50;;
75760;SDS011;64373;46.136;8.830;2023-03-02T07:33:30;23.73;;;12.50;;
75760;SDS011;64373;46.136;8.830;2023-03-02T07:35:55;32.50;;;16.17;;
75760;SDS011;64373;46.136;8.830;2023-03-02T07:38:21;29.25;;;13.38;;
75760;SDS011;64373;46.136;8.830;2023-03-02T07:40:47;21.30;;;10.80;;
75760;SDS011;64373;46.136;8.830;2023-03-02T07:43:13;20.27;;;11.20;;
75760;SDS011;64373;46.136;8.830;2023-03-02T07:45:39;20.67;;;9.73;;
75760;SDS011;64373;46.136;8.830;2023-03-02T07:48:04;32.33;;;17.40;;
75760;SDS011;64373;46.136;8.830;2023-03-02T07:50:30;39.17;;;19.00;;
75760;SDS011;64373;46.136;8.830;2023-03-02T07:52:56;40.25;;;19.05;;
75760;SDS011;64373;46.136;8.830;2023-03-02T07:55:22;33.00;;;16.80;;
75760;SDS011;64373;46.136;8.830;2023-03-02T07:57:47;39.97;;;18.38;;
75760;SDS011;64373;46.136;8.830;2023-03-02T08:00:13;41.28;;;18.23;;
75760;SDS011;64373;46.136;8.830;2023-03-02T08:02:40;34.38;;;15.93;;
75760;SDS011;64373;46.136;8.830;2023-03-02T08:05:06;39.40;;;18.70;;
75760;SDS011;64373;46.136;8.830;2023-03-02T08:07:32;40.63;;;19.63;;
75760;SDS011;64373;46.136;8.830;2023-03-02T08:09:58;34.20;;;15.90;;
75760;SDS011;64373;46.136;8.830;2023-03-02T08:12:25;40.92;;;19.48;;
75760;SDS011;64373;46.136;8.830;2023-03-02T08:14:51;37.83;;;17.58;;
75760;SDS011;64373;46.136;8.830;2023-03-02T08:17:17;43.28;;;19.02;;
75760;SDS011;64373;46.136;8.830;2023-03-02T08:19:43;41.58;;;19.23;;
75760;SDS011;64373;46.136;8.830;2023-03-02T08:22:08;43.25;;;19.27;;
75760;SDS011;64373;46.136;8.830;2023-03-02T08:24:34;40.92;;;19.20;;
75760;SDS011;64373;46.136;8.830;2023-03-02T08:27:00;33.28;;;16.48;;
75760;SDS011;64373;46.136;8.830;2023-03-02T08:29:26;38.83;;;18.05;;
75760;SDS011;64373;46.136;8.830;2023-03-02T08:31:51;32.67;;;15.27;;
75760;SDS011;64373;46.136;8.830;2023-03-02T08:34:17;30.85;;;14.52;;
75760;SDS011;64373;46.136;8.830;2023-03-02T08:36:42;37.88;;;17.38;;
75760;SDS011;64373;46.136;8.830;2023-03-02T08:39:09;30.60;;;14.80;;
75760;SDS011;64373;46.136;8.830;2023-03-02T08:41:35;38.55;;;18.98;;
75760;SDS011;64373;46.136;8.830;2023-03-02T08:44:00;28.17;;;14.40;;
75760;SDS011;64373;46.136;8.830;2023-03-02T08:46:26;39.45;;;17.90;;
75760;SDS011;64373;46.136;8.830;2023-03-02T08:48:51;38.78;;;18.92;;
75760;SDS011;64373;46.136;8.830;2023-03-02T08:51:21;38.50;;;17.92;;
75760;SDS011;64373;46.136;8.830;2023-03-02T08:53:49;36.85;;;16.60;;
75760;SDS011;64373;46.136;8.830;2023-03-02T08:58:47;31.10;;;15.75;;
75760;SDS011;64373;46.136;8.830;2023-03-02T09:01:18;36.10;;;17.73;;
75760;SDS011;64373;46.136;8.830;2023-03-02T09:03:47;30.25;;;15.27;;
75760;SDS011;64373;46.136;8.830;2023-03-02T09:06:13;31.92;;;16.50;;
75760;SDS011;64373;46.136;8.830;2023-03-02T09:08:39;33.70;;;16.92;;
75760;SDS011;64373;46.136;8.830;2023-03-02T09:11:05;33.30;;;17.08;;
75760;SDS011;64373;46.136;8.830;2023-03-02T09:13:32;30.27;;;16.30;;
75760;SDS011;64373;46.136;8.830;2023-03-02T09:15:57;26.33;;;13.50;;
75760;SDS011;64373;46.136;8.830;2023-03-02T09:18:23;20.58;;;10.95;;
75760;SDS011;64373;46.136;8.830;2023-03-02T09:20:52;20.27;;;10.50;;
75760;SDS011;64373;46.136;8.830;2023-03-02T09:23:18;21.90;;;11.10;;
75760;SDS011;64373;46.136;8.830;2023-03-02T09:25:44;27.40;;;12.52;;
75760;SDS011;64373;46.136;8.830;2023-03-02T09:28:13;28.88;;;13.20;;
75760;SDS011;64373;46.136;8.830;2023-03-02T09:30:39;31.33;;;15.57;;
75760;SDS011;64373;46.136;8.830;2023-03-02T09:33:04;25.55;;;11.95;;
75760;SDS011;64373;46.136;8.830;2023-03-02T09:35:30;23.92;;;12.13;;
75760;SDS011;64373;46.136;8.830;2023-03-02T09:37:55;30.55;;;15.73;;
75760;SDS011;64373;46.136;8.830;2023-03-02T09:40:21;35.50;;;16.58;;
75760;SDS011;64373;46.136;8.830;2023-03-02T09:50:32;33.53;;;16.42;;
75760;SDS011;64373;46.136;8.830;2023-03-02T09:56:02;24.42;;;11.82;;
75760;SDS011;64373;46.136;8.830;2023-03-02T09:58:30;21.50;;;10.85;;
75760;SDS011;64373;46.136;8.830;2023-03-02T10:01:00;25.58;;;12.43;;
75760;SDS011;64373;46.136;8.830;2023-03-02T10:03:37;25.98;;;12.38;;
75760;SDS011;64373;46.136;8.830;2023-03-02T10:06:07;25.55;;;12.48;;
75760;SDS011;64373;46.136;8.830;2023-03-02T10:08:34;24.98;;;12.32;;
75760;SDS011;64373;46.136;8.830;2023-03-02T10:11:13;31.50;;;15.23;;
75760;SDS011;64373;46.136;8.830;2023-03-02T10:16:33;18.33;;;9.07;;
75760;SDS011;64373;46.136;8.830;2023-03-02T10:19:07;25.55;;;12.75;;
75760;SDS011;64373;46.136;8.830;2023-03-02T10:21:43;33.67;;;16.60;;
75760;SDS011;64373;46.136;8.830;2023-03-02T10:26:58;36.50;;;17.45;;
75760;SDS011;64373;46.136;8.830;2023-03-02T10:29:42;32.85;;;14.68;;
75760;SDS011;64373;46.136;8.830;2023-03-02T10:32:21;27.13;;;12.65;;
75760;SDS011;64373;46.136;8.830;2023-03-02T10:34:51;23.10;;;11.75;;
75760;SDS011;64373;46.136;8.830;2023-03-02T10:37:21;36.58;;;17.00;;
75760;SDS011;64373;46.136;8.830;2023-03-02T10:39:50;34.85;;;15.63;;
75760;SDS011;64373;46.136;8.830;2023-03-02T10:42:26;30.88;;;14.82;;
75760;SDS011;64373;46.136;8.830;2023-03-02T10:44:56;24.70;;;11.68;;
75760;SDS011;64373;46.136;8.830;2023-03-02T10:47:36;28.88;;;14.10;;
75760;SDS011;64373;46.136;8.830;2023-03-02T10:50:01;27.48;;;14.05;;
75760;SDS011;64373;46.136;8.830;2023-03-02T10:52:27;32.10;;;14.63;;
75760;SDS011;64373;46.136;8.830;2023-03-02T10:55:08;33.47;;;15.35;;
75760;SDS011;64373;46.136;8.830;2023-03-02T10:57:39;28.40;;;13.63;;
75760;SDS011;64373;46.136;8.830;2023-03-02T11:00:17;24.88;;;12.55;;
75760;SDS011;64373;46.136;8.830;2023-03-02T11:02:57;17.52;;;9.85;;
75760;SDS011;64373;46.136;8.830;2023-03-02T11:05:34;19.60;;;9.82;;
75760;SDS011;64373;46.136;8.830;2023-03-02T11:08:08;35.17;;;15.35;;
75760;SDS011;64373;46.136;8.830;2023-03-02T11:10:38;26.33;;;12.82;;
75760;SDS011;64373;46.136;8.830;2023-03-02T11:13:26;28.77;;;14.52;;
75760;SDS011;64373;46.136;8.830;2023-03-02T11:15:57;30.15;;;14.30;;
75760;SDS011;64373;46.136;8.830;2023-03-02T11:18:25;25.90;;;12.95;;
75760;SDS011;64373;46.136;8.830;2023-03-02T11:20:58;29.98;;;12.48;;
75760;SDS011;64373;46.136;8.830;2023-03-02T11:25:59;15.48;;;8.10;;
75760;SDS011;64373;46.136;8.830;2023-03-02T11:28:38;22.58;;;11.20;;
75760;SDS011;64373;46.136;8.830;2023-03-02T11:31:32;13.63;;;6.78;;
75760;SDS011;64373;46.136;8.830;2023-03-02T11:34:04;25.48;;;13.80;;
75760;SDS011;64373;46.136;8.830;2023-03-02T11:36:42;26.45;;;12.82;;
75760;SDS011;64373;46.136;8.830;2023-03-02T11:39:11;21.83;;;10.25;;
75760;SDS011;64373;46.136;8.830;2023-03-02T11:41:40;17.02;;;8.77;;
75760;SDS011;64373;46.136;8.830;2023-03-02T11:44:11;20.35;;;10.15;;
75760;SDS011;64373;46.136;8.830;2023-03-02T11:46:43;29.42;;;12.95;;
75760;SDS011;64373;46.136;8.830;2023-03-02T11:49:23;28.67;;;14.05;;
75760;SDS011;64373;46.136;8.830;2023-03-02T11:52:00;24.80;;;13.18;;
75760;SDS011;64373;46.136;8.830;2023-03-02T11:57:07;21.30;;;9.82;;
75760;SDS011;64373;46.136;8.830;2023-03-02T11:59:41;22.70;;;11.38;;
75760;SDS011;64373;46.136;8.830;2023-03-02T12:02:08;21.70;;;11.23;;
75760;SDS011;64373;46.136;8.830;2023-03-02T12:04:36;18.13;;;9.50;;
75760;SDS011;64373;46.136;8.830;2023-03-02T12:07:14;18.13;;;8.65;;
75760;SDS011;64373;46.136;8.830;2023-03-02T12:09:40;20.40;;;10.13;;
75760;SDS011;64373;46.136;8.830;2023-03-02T12:14:41;26.92;;;13.20;;
75760;SDS011;64373;46.136;8.830;2023-03-02T12:20:06;27.73;;;12.50;;
75760;SDS011;64373;46.136;8.830;2023-03-02T12:22:32;17.00;;;8.80;;
75760;SDS011;64373;46.136;8.830;2023-03-02T12:24:59;18.17;;;7.80;;
75760;SDS011;64373;46.136;8.830;2023-03-02T12:27:33;15.93;;;7.43;;
75760;SDS011;64373;46.136;8.830;2023-03-02T12:32:57;17.52;;;9.10;;
75760;SDS011;64373;46.136;8.830;2023-03-02T12:35:35;19.75;;;8.75;;
75760;SDS011;64373;46.136;8.830;2023-03-02T12:38:05;17.48;;;8.40;;
75760;SDS011;64373;46.136;8.830;2023-03-02T12:40:39;16.15;;;7.95;;
75760;SDS011;64373;46.136;8.830;2023-03-02T12:43:35;19.85;;;10.70;;
75760;SDS011;64373;46.136;8.830;2023-03-02T12:49:01;15.32;;;8.13;;
75760;SDS011;64373;46.136;8.830;2023-03-02T12:51:53;15.57;;;8.00;;
75760;SDS011;64373;46.136;8.830;2023-03-02T12:54:20;13.40;;;6.78;;
75760;SDS011;64373;46.136;8.830;2023-03-02T12:56:47;14.35;;;7.13;;
75760;SDS011;64373;46.136;8.830;2023-03-02T12:59:21;22.20;;;11.30;;
75760;SDS011;64373;46.136;8.830;2023-03-02T13:01:48;14.98;;;8.35;;
75760;SDS011;64373;46.136;8.830;2023-03-02T13:04:21;25.95;;;13.02;;
75760;SDS011;64373;46.136;8.830;2023-03-02T13:06:47;31.65;;;14.60;;
75760;SDS011;64373;46.136;8.830;2023-03-02T13:09:13;28.88;;;13.75;;
75760;SDS011;64373;46.136;8.830;2023-03-02T13:11:40;27.33;;;13.05;;
75760;SDS011;64373;46.136;8.830;2023-03-02T13:14:27;28.70;;;13.55;;
75760;SDS011;64373;46.136;8.830;2023-03-02T13:16:57;31.08;;;14.20;;
75760;SDS011;64373;46.136;8.830;2023-03-02T13:19:24;27.05;;;12.85;;
75760;SDS011;64373;46.136;8.830;2023-03-02T13:21:50;20.65;;;10.82;;
75760;SDS011;64373;46.136;8.830;2023-03-02T13:27:13;22.70;;;11.63;;
75760;SDS011;64373;46.136;8.830;2023-03-02T13:29:43;22.58;;;11.30;;
75760;SDS011;64373;46.136;8.830;2023-03-02T13:32:14;16.33;;;7.90;;
75760;SDS011;64373;46.136;8.830;2023-03-02T13:34:45;21.65;;;10.57;;
75760;SDS011;64373;46.136;8.830;2023-03-02T13:37:19;18.65;;;10.05;;
75760;SDS011;64373;46.136;8.830;2023-03-02T13:39:56;20.02;;;10.52;;
75760;SDS011;64373;46.136;8.830;2023-03-02T13:42:24;16.75;;;8.88;;
75760;SDS011;64373;46.136;8.830;2023-03-02T13:47:55;11.95;;;5.75;;
75760;SDS011;64373;46.136;8.830;2023-03-02T13:50:26;19.05;;;9.68;;
75760;SDS011;64373;46.136;8.830;2023-03-02T13:52:54;15.30;;;8.00;;
75760;SDS011;64373;46.136;8.830;2023-03-02T13:55:21;14.00;;;7.55;;
75760;SDS011;64373;46.136;8.830;2023-03-02T13:57:47;10.55;;;6.10;;
75760;SDS011;64373;46.136;8.830;2023-03-02T14:00:47;24.08;;;10.90;;
75760;SDS011;64373;46.136;8.830;2023-03-02T14:03:25;14.77;;;7.55;;
75760;SDS011;64373;46.136;8.830;2023-03-02T14:05:53;11.52;;;6.55;;
75760;SDS011;64373;46.136;8.830;2023-03-02T14:08:20;14.27;;;7.13;;
75760;SDS011;64373;46.136;8.830;2023-03-02T14:10:46;19.25;;;10.98;;
75760;SDS011;64373;46.136;8.830;2023-03-02T14:13:16;23.00;;;11.85;;
75760;SDS011;64373;46.136;8.830;2023-03-02T14:15:47;21.83;;;11.48;;
75760;SDS011;64373;46.136;8.830;2023-03-02T14:20:55;23.27;;;11.55;;
75760;SDS011;64373;46.136;8.830;2023-03-02T14:23:22;23.27;;;11.80;;
75760;SDS011;64373;46.136;8.830;2023-03-02T14:25:49;24.65;;;12.25;;
75760;SDS011;64373;46.136;8.830;2023-03-02T14:28:17;21.33;;;11.25;;
75760;SDS011;64373;46.136;8.830;2023-03-02T14:30:53;19.42;;;10.43;;
75760;SDS011;64373;46.136;8.830;2023-03-02T14:33:19;21.33;;;11.20;;
75760;SDS011;64373;46.136;8.830;2023-03-02T14:35:46;17.50;;;9.25;;
75760;SDS011;64373;46.136;8.830;2023-03-02T14:38:12;18.20;;;10.38;;
75760;SDS011;64373;46.136;8.830;2023-03-02T14:40:38;20.40;;;10.48;;
75760;SDS011;64373;46.136;8.830;2023-03-02T14:43:03;18.92;;;10.10;;
75760;SDS011;64373;46.136;8.830;2023-03-02T14:45:29;18.00;;;8.90;;
75760;SDS011;64373;46.136;8.830;2023-03-02T14:47:58;21.45;;;11.45;;
75760;SDS011;64373;46.136;8.830;2023-03-02T14:50:24;21.25;;;10.73;;
75760;SDS011;64373;46.136;8.830;2023-03-02T14:52:50;22.85;;;12.02;;
75760;SDS011;64373;46.136;8.830;2023-03-02T14:55:20;22.63;;;11.73;;
75760;SDS011;64373;46.136;8.830;2023-03-02T14:57:53;22.70;;;12.20;;
75760;SDS011;64373;46.136;8.830;2023-03-02T15:00:21;25.10;;;12.05;;
75760;SDS011;64373;46.136;8.830;2023-03-02T15:02:47;22.88;;;12.13;;
75760;SDS011;64373;46.136;8.830;2023-03-02T15:05:12;20.85;;;10.98;;
75760;SDS011;64373;46.136;8.830;2023-03-02T15:07:38;15.65;;;8.65;;
75760;SDS011;64373;46.136;8.830;2023-03-02T15:10:05;14.63;;;7.45;;
75760;SDS011;64373;46.136;8.830;2023-03-02T15:12:32;11.85;;;6.65;;
75760;SDS011;64373;46.136;8.830;2023-03-02T15:14:58;23.77;;;10.75;;
75760;SDS011;64373;46.136;8.830;2023-03-02T15:17:24;22.10;;;11.15;;
75760;SDS011;64373;46.136;8.830;2023-03-02T15:19:49;19.70;;;10.93;;
75760;SDS011;64373;46.136;8.830;2023-03-02T15:22:15;22.35;;;11.57;;
75760;SDS011;64373;46.136;8.830;2023-03-02T15:24:41;18.25;;;10.27;;
75760;SDS011;64373;46.136;8.830;2023-03-02T15:27:06;19.38;;;10.02;;
75760;SDS011;64373;46.136;8.830;2023-03-02T15:29:32;16.17;;;8.93;;